createdAt,value
2022-11-02T00:00:23.898Z,2.17
2022-11-02T00:02:51.484Z,2.07
2022-11-02T00:05:23.848Z,1.97
2022-11-02T00:07:52.059Z,2.37
2022-11-02T00:10:19.970Z,1.70
2022-11-02T00:12:47.875Z,1.97
2022-11-02T00:15:15.512Z,1.90
2022-11-02T00:17:46.619Z,2.07
2022-11-02T00:20:15.910Z,1.90
2022-11-02T00:22:44.042Z,2.13
2022-11-02T00:25:13.603Z,1.90
2022-11-02T00:27:41.656Z,1.90
2022-11-02T00:30:10.678Z,1.80
2022-11-02T00:32:38.232Z,2.00
2022-11-02T00:35:08.302Z,1.80
2022-11-02T00:37:35.926Z,2.10
2022-11-02T00:40:03.786Z,2.33
2022-11-02T00:42:31.346Z,2.50
2022-11-02T00:44:59.083Z,2.10
2022-11-02T00:47:26.677Z,1.63
2022-11-02T00:49:54.244Z,1.70
2022-11-02T00:52:23.379Z,1.73
2022-11-02T00:54:51.038Z,1.90
2022-11-02T00:57:18.921Z,1.70
2022-11-02T00:59:46.465Z,2.33
2022-11-02T01:02:14.843Z,1.97
2022-11-02T01:04:42.688Z,1.97
2022-11-02T01:07:10.570Z,2.40
2022-11-02T01:09:39.682Z,2.10
2022-11-02T01:12:07.856Z,1.83
2022-11-02T01:14:35.593Z,1.90
2022-11-02T01:17:03.181Z,2.03
2022-11-02T01:19:31.258Z,1.90
2022-11-02T01:21:58.799Z,1.70
2022-11-02T01:24:26.477Z,2.00
2022-11-02T01:26:55.558Z,1.90
2022-11-02T01:29:23.165Z,2.10
2022-11-02T01:31:52.565Z,2.23
2022-11-02T01:34:20.292Z,2.23
2022-11-02T01:36:48.176Z,2.17
2022-11-02T01:39:16.168Z,1.97
2022-11-02T01:41:44.342Z,2.47
2022-11-02T01:44:30.156Z,2.67
2022-11-02T01:47:01.604Z,2.40
2022-11-02T01:49:30.095Z,2.40
2022-11-02T01:52:00.959Z,2.50
2022-11-02T01:54:31.200Z,2.00
2022-11-02T01:57:02.504Z,1.90
2022-11-02T01:59:34.715Z,2.17
2022-11-02T02:02:03.112Z,2.13
2022-11-02T02:04:30.790Z,2.40
2022-11-02T02:06:59.642Z,2.30
2022-11-02T02:09:27.889Z,2.47
2022-11-02T02:11:55.429Z,2.00
2022-11-02T02:14:23.068Z,2.67
2022-11-02T02:17:02.274Z,2.70
2022-11-02T02:19:36.113Z,2.97
2022-11-02T02:22:20.570Z,2.40
2022-11-02T02:24:53.055Z,2.93
2022-11-02T02:27:23.345Z,2.40
2022-11-02T02:30:03.941Z,2.30
2022-11-02T02:32:37.433Z,2.37
2022-11-02T02:35:12.891Z,2.00
2022-11-02T02:37:44.019Z,2.20
2022-11-02T02:40:15.084Z,2.17
2022-11-02T02:42:45.954Z,2.47
2022-11-02T02:45:18.556Z,2.13
2022-11-02T02:47:50.087Z,2.47
2022-11-02T02:50:20.984Z,2.33
2022-11-02T02:52:50.910Z,2.17
2022-11-02T02:55:21.834Z,2.80
2022-11-02T02:57:50.733Z,2.20
2022-11-02T03:00:19.923Z,2.27
2022-11-02T03:03:00.822Z,1.80
2022-11-02T03:05:31.302Z,2.37
2022-11-02T03:08:02.313Z,1.83
2022-11-02T03:10:35.981Z,2.53
2022-11-02T03:13:12.178Z,2.00
2022-11-02T03:15:43.225Z,1.90
2022-11-02T03:18:17.940Z,2.13
2022-11-02T03:20:56.118Z,2.37
2022-11-02T03:23:27.922Z,2.23
2022-11-02T03:26:00.936Z,2.40
2022-11-02T03:28:38.145Z,1.90
2022-11-02T03:31:11.259Z,2.33
2022-11-02T03:33:42.485Z,2.03
2022-11-02T03:36:12.907Z,2.10
2022-11-02T03:38:45.446Z,2.57
2022-11-02T03:41:13.598Z,2.53
2022-11-02T03:43:41.956Z,2.50
2022-11-02T03:46:12.361Z,2.17
2022-11-02T03:48:43.055Z,1.93
2022-11-02T03:51:13.450Z,2.57
2022-11-02T03:53:44.929Z,2.53
2022-11-02T03:56:16.631Z,2.07
2022-11-02T03:58:44.199Z,2.43
2022-11-02T04:01:13.586Z,2.60
2022-11-02T04:03:45.845Z,2.37
2022-11-02T04:06:13.814Z,2.23
2022-11-02T04:08:44.109Z,2.20
2022-11-02T04:11:29.509Z,1.90
2022-11-02T04:14:14.794Z,2.97
2022-11-02T04:16:44.094Z,2.00
2022-11-02T04:19:28.718Z,2.10
2022-11-02T04:22:10.915Z,1.83
2022-11-02T04:24:56.290Z,1.93
2022-11-02T04:27:23.982Z,2.40
2022-11-02T04:29:51.671Z,2.67
2022-11-02T04:32:40.732Z,2.37
2022-11-02T04:35:08.486Z,2.00
2022-11-02T04:37:56.872Z,2.37
2022-11-02T04:40:24.460Z,2.20
2022-11-02T04:42:52.059Z,1.77
2022-11-02T04:45:19.966Z,2.47
2022-11-02T04:47:48.876Z,2.10
2022-11-02T04:50:16.659Z,2.37
2022-11-02T04:52:44.261Z,2.37
2022-11-02T04:55:12.008Z,2.20
2022-11-02T05:00:08.875Z,3.03
2022-11-02T05:02:36.566Z,1.90
2022-11-02T05:05:06.700Z,2.00
2022-11-02T05:07:34.281Z,2.73
2022-11-02T05:10:01.863Z,1.97
2022-11-02T05:12:29.531Z,2.00
2022-11-02T05:14:57.107Z,2.03
2022-11-02T05:17:25.062Z,1.90
2022-11-02T05:19:52.626Z,2.67
2022-11-02T05:22:22.376Z,2.23
2022-11-02T05:24:49.970Z,2.30
2022-11-02T05:27:17.556Z,2.80
2022-11-02T05:29:45.118Z,1.70
2022-11-02T05:32:12.670Z,2.27
2022-11-02T05:34:40.204Z,2.13
2022-11-02T05:37:07.757Z,2.67
2022-11-02T05:39:37.227Z,2.10
2022-11-02T05:42:05.055Z,2.50
2022-11-02T05:44:32.670Z,2.60
2022-11-02T05:47:00.245Z,2.60
2022-11-02T05:49:27.809Z,2.40
2022-11-02T05:51:55.402Z,2.23
2022-11-02T05:54:23.028Z,1.80
2022-11-02T05:56:51.966Z,2.03
2022-11-02T05:59:19.637Z,2.20
2022-11-02T06:01:47.343Z,1.90
2022-11-02T06:04:14.990Z,2.43
2022-11-02T06:06:42.557Z,2.10
2022-11-02T06:09:10.384Z,2.53
2022-11-02T06:11:38.277Z,2.87
2022-11-02T06:14:07.393Z,2.53
2022-11-02T06:16:35.079Z,1.97
2022-11-02T06:19:02.726Z,3.30
2022-11-02T06:21:30.364Z,2.20
2022-11-02T06:23:58.902Z,2.83
2022-11-02T06:26:26.623Z,2.47
2022-11-02T06:28:54.307Z,2.43
2022-11-02T06:31:23.187Z,2.17
2022-11-02T06:33:50.899Z,2.27
2022-11-02T06:36:18.475Z,2.40
2022-11-02T06:38:46.449Z,2.33
2022-11-02T06:41:13.996Z,2.23
2022-11-02T06:43:41.667Z,1.77
2022-11-02T06:46:09.702Z,2.40
2022-11-02T06:48:38.636Z,2.00
2022-11-02T06:51:06.894Z,2.30
2022-11-02T06:53:34.688Z,2.47
2022-11-02T06:56:02.284Z,2.37
2022-11-02T06:58:30.529Z,2.27
2022-11-02T07:00:59.632Z,2.17
2022-11-02T07:03:27.563Z,2.40
2022-11-02T07:05:56.590Z,2.00
2022-11-02T07:08:24.264Z,2.27
2022-11-02T07:10:51.836Z,2.87
2022-11-02T07:13:19.680Z,2.30
2022-11-02T07:15:47.448Z,2.30
2022-11-02T07:18:15.338Z,2.77
2022-11-02T07:20:42.960Z,2.73
2022-11-02T07:23:12.051Z,2.17
2022-11-02T07:25:39.585Z,2.43
2022-11-02T07:28:07.275Z,2.27
2022-11-02T07:30:35.809Z,2.27
2022-11-02T07:33:03.890Z,2.80
2022-11-02T07:35:34.151Z,2.40
2022-11-02T07:38:02.981Z,2.17
2022-11-02T07:40:33.573Z,2.30
2022-11-02T07:43:01.991Z,2.10
2022-11-02T07:45:30.199Z,2.53
2022-11-02T07:47:57.838Z,2.30
2022-11-02T07:50:27.458Z,1.93
2022-11-02T07:52:57.926Z,2.33
2022-11-02T07:55:26.787Z,2.67
2022-11-02T07:57:56.641Z,2.30
2022-11-02T08:00:25.346Z,2.43
2022-11-02T08:02:55.565Z,2.80
2022-11-02T08:05:23.644Z,2.00
2022-11-02T08:07:57.888Z,3.30
2022-11-02T08:10:25.836Z,2.40
2022-11-02T08:12:53.633Z,2.83
2022-11-02T08:15:22.901Z,4.07
2022-11-02T08:18:01.092Z,3.30
2022-11-02T08:20:28.818Z,2.40
2022-11-02T08:22:56.501Z,3.17
2022-11-02T08:25:24.198Z,3.00
2022-11-02T08:27:52.159Z,2.37
2022-11-02T08:30:19.838Z,2.30
2022-11-02T08:32:51.529Z,2.93
2022-11-02T08:35:23.561Z,2.30
2022-11-02T08:37:56.001Z,2.30
2022-11-02T08:40:23.736Z,2.10
2022-11-02T08:42:56.910Z,2.93
2022-11-02T08:45:24.517Z,2.23
2022-11-02T08:47:53.561Z,2.47
2022-11-02T08:50:21.438Z,2.50
2022-11-02T08:52:49.069Z,2.47
2022-11-02T08:55:17.038Z,2.40
2022-11-02T08:57:48.222Z,2.20
2022-11-02T09:00:16.784Z,1.90
2022-11-02T09:02:44.664Z,2.30
2022-11-02T09:05:13.839Z,2.60
2022-11-02T09:07:41.437Z,2.50
2022-11-02T09:10:09.763Z,2.23
2022-11-02T09:12:37.297Z,2.17
2022-11-02T09:15:05.393Z,1.63
2022-11-02T09:17:33.119Z,2.07
2022-11-02T09:20:00.690Z,2.03
2022-11-02T09:22:29.973Z,2.07
2022-11-02T09:24:57.612Z,2.37
2022-11-02T09:27:25.172Z,2.03
2022-11-02T09:29:52.721Z,2.60
2022-11-02T09:32:20.305Z,2.13
2022-11-02T09:34:50.430Z,2.53
2022-11-02T09:37:18.068Z,2.57
2022-11-02T09:39:47.113Z,2.10
2022-11-02T09:42:18.879Z,2.00
2022-11-02T09:44:51.713Z,2.20
2022-11-02T09:50:08.057Z,2.73
2022-11-02T09:52:38.098Z,2.60
2022-11-02T09:55:13.646Z,2.03
2022-11-02T09:57:43.601Z,2.90
2022-11-02T10:00:14.489Z,2.47
2022-11-02T10:02:53.540Z,1.97
2022-11-02T10:05:31.276Z,2.37
2022-11-02T10:08:14.431Z,2.60
2022-11-02T10:10:52.141Z,2.23
2022-11-02T10:13:30.266Z,2.30
2022-11-02T10:16:01.607Z,2.47
2022-11-02T10:18:30.969Z,2.63
2022-11-02T10:21:00.176Z,2.20
2022-11-02T10:23:30.142Z,2.10
2022-11-02T10:25:59.557Z,2.00
2022-11-02T10:28:30.228Z,1.67
2022-11-02T10:30:58.470Z,2.63
2022-11-02T10:33:27.721Z,1.83
2022-11-02T10:36:18.021Z,2.10
2022-11-02T10:38:55.012Z,1.57
2022-11-02T10:41:40.700Z,2.10
2022-11-02T10:44:26.373Z,2.00
2022-11-02T10:47:05.171Z,2.03
2022-11-02T10:49:48.977Z,1.77
2022-11-02T10:52:17.528Z,2.37
2022-11-02T10:54:45.204Z,2.20
2022-11-02T10:57:15.278Z,2.60
2022-11-02T10:59:42.852Z,2.10
2022-11-02T11:02:13.380Z,1.80
2022-11-02T11:04:42.195Z,2.00
2022-11-02T11:07:15.307Z,2.03
2022-11-02T11:09:49.468Z,1.83
2022-11-02T11:12:22.216Z,2.37
2022-11-02T11:20:34.922Z,1.70
2022-11-02T11:23:10.532Z,2.00
2022-11-02T11:25:38.100Z,1.90
2022-11-02T11:28:23.286Z,1.70
2022-11-02T11:31:03.003Z,2.10
2022-11-02T11:33:32.642Z,1.67
2022-11-02T11:36:00.618Z,1.90
2022-11-02T11:38:28.435Z,1.60
2022-11-02T11:40:58.923Z,2.03
2022-11-02T11:43:30.865Z,1.77
2022-11-02T11:46:05.284Z,1.93
2022-11-02T11:48:37.503Z,1.80
2022-11-02T11:51:06.016Z,2.50
2022-11-02T11:53:35.427Z,2.00
2022-11-02T11:56:02.980Z,1.67
2022-11-02T11:58:32.302Z,2.20
2022-11-02T12:01:09.360Z,2.17
2022-11-02T12:03:51.552Z,2.20
2022-11-02T12:06:25.162Z,1.70
2022-11-02T12:09:00.215Z,1.63
2022-11-02T12:11:43.861Z,1.77
2022-11-02T12:14:22.009Z,2.00
2022-11-02T12:17:04.179Z,1.40
2022-11-02T12:19:40.266Z,1.90
2022-11-02T12:22:13.973Z,2.00
2022-11-02T12:24:51.640Z,1.97
2022-11-02T12:27:29.128Z,1.50
2022-11-02T12:30:06.303Z,1.77
2022-11-02T12:33:09.365Z,2.30
2022-11-02T12:35:59.167Z,2.00
2022-11-02T12:38:52.830Z,2.27
2022-11-02T12:41:32.263Z,2.37
2022-11-02T12:44:06.725Z,1.87
2022-11-02T12:46:44.625Z,1.83
2022-11-02T12:49:35.693Z,2.00
2022-11-02T12:52:08.238Z,2.20
2022-11-02T12:54:41.581Z,1.73
2022-11-02T12:57:12.405Z,1.60
2022-11-02T12:59:42.106Z,1.87
2022-11-02T13:02:14.929Z,1.90
2022-11-02T13:04:47.758Z,1.83
2022-11-02T13:07:17.461Z,2.07
2022-11-02T13:09:54.141Z,2.00
2022-11-02T13:12:23.688Z,2.00
2022-11-02T13:14:53.284Z,2.30
2022-11-02T13:17:24.482Z,1.70
2022-11-02T13:19:54.714Z,2.30
2022-11-02T13:22:26.879Z,1.97
2022-11-02T13:24:57.501Z,2.17
2022-11-02T13:27:36.349Z,1.83
2022-11-02T13:30:07.000Z,2.03
2022-11-02T13:32:37.874Z,2.20
2022-11-02T13:35:08.745Z,1.63
2022-11-02T13:37:39.082Z,2.10
2022-11-02T13:40:16.935Z,2.00
2022-11-02T13:43:06.144Z,1.70
2022-11-02T13:45:46.180Z,2.20
2022-11-02T13:48:37.502Z,2.07
2022-11-02T13:51:08.082Z,1.80
2022-11-02T13:53:37.644Z,2.00
2022-11-02T13:56:10.172Z,2.50
2022-11-02T13:58:40.603Z,2.40
2022-11-02T14:01:11.318Z,1.47
2022-11-02T14:03:49.744Z,2.03
2022-11-02T14:06:18.796Z,2.20
2022-11-02T14:08:50.436Z,1.83
2022-11-02T14:11:27.441Z,1.70
2022-11-02T14:14:20.449Z,1.57
2022-11-02T14:17:12.887Z,1.97
2022-11-02T14:19:53.649Z,2.30
2022-11-02T14:22:21.944Z,1.60
2022-11-02T14:25:09.326Z,2.00
2022-11-02T14:27:37.133Z,1.67
2022-11-02T14:30:05.435Z,1.90
2022-11-02T14:32:53.781Z,1.70
2022-11-02T14:35:38.134Z,2.30
2022-11-02T14:38:30.625Z,2.77
2022-11-02T14:41:03.637Z,2.10
2022-11-02T14:44:03.731Z,2.57
2022-11-02T14:46:44.365Z,1.63
2022-11-02T14:49:20.502Z,2.07
2022-11-02T14:52:03.470Z,2.63
2022-11-02T14:54:33.507Z,1.80
2022-11-02T14:57:04.890Z,1.90
2022-11-02T14:59:35.103Z,1.67
2022-11-02T15:02:05.028Z,1.80
2022-11-02T15:04:34.367Z,1.93
2022-11-02T15:07:05.494Z,1.97
2022-11-02T15:09:52.303Z,2.13
2022-11-02T15:12:44.587Z,2.10
2022-11-02T15:15:31.414Z,2.20
2022-11-02T15:18:23.741Z,2.47
2022-11-02T15:21:29.860Z,2.03
2022-11-02T15:24:15.654Z,1.87
2022-11-02T15:26:55.778Z,1.97
2022-11-02T15:29:36.905Z,1.73
2022-11-02T15:32:06.452Z,2.10
2022-11-02T15:34:37.116Z,2.17
2022-11-02T15:37:05.308Z,1.77
2022-11-02T15:39:34.362Z,1.93
2022-11-02T15:42:06.264Z,2.00
2022-11-02T15:45:05.408Z,1.97
2022-11-02T15:47:49.538Z,2.10
2022-11-02T15:50:21.697Z,1.87
2022-11-02T15:53:28.067Z,2.13
2022-11-02T15:56:10.917Z,1.97
2022-11-02T15:58:48.095Z,2.40
2022-11-02T16:01:19.634Z,1.93
2022-11-02T16:03:48.729Z,2.00
2022-11-02T16:06:16.467Z,2.33
2022-11-02T16:08:44.781Z,2.17
2022-11-02T16:11:17.271Z,2.50
2022-11-02T16:13:55.947Z,2.37
2022-11-02T16:16:35.916Z,2.20
2022-11-02T16:19:03.919Z,2.43
2022-11-02T16:21:31.515Z,2.87
2022-11-02T16:23:59.368Z,2.60
2022-11-02T16:26:30.719Z,2.27
2022-11-02T16:28:59.874Z,2.10
2022-11-02T16:31:31.095Z,2.80
2022-11-02T16:33:59.894Z,2.40
2022-11-02T16:36:28.664Z,2.80
2022-11-02T16:38:59.584Z,2.47
2022-11-02T16:41:29.614Z,2.87
2022-11-02T16:43:58.138Z,2.80
2022-11-02T16:46:31.738Z,2.17
2022-11-02T16:49:13.087Z,2.20
2022-11-02T16:51:40.774Z,2.67
2022-11-02T16:54:39.788Z,2.57
2022-11-02T16:57:14.101Z,2.60
2022-11-02T16:59:50.692Z,2.90
2022-11-02T17:02:18.943Z,2.40
2022-11-02T17:04:48.150Z,2.77
2022-11-02T17:07:18.652Z,2.80
2022-11-02T17:09:51.415Z,2.50
2022-11-02T17:12:30.349Z,2.53
2022-11-02T17:14:58.630Z,2.60
2022-11-02T17:17:37.174Z,2.43
2022-11-02T17:20:22.737Z,2.30
2022-11-02T17:22:53.265Z,2.33
2022-11-02T17:25:23.079Z,1.93
2022-11-02T17:27:53.252Z,2.27
2022-11-02T17:30:48.636Z,2.30
2022-11-02T17:33:27.724Z,2.03
2022-11-02T17:35:56.739Z,2.33
2022-11-02T17:38:26.694Z,1.90
2022-11-02T17:40:54.986Z,2.17
2022-11-02T17:43:23.786Z,2.53
2022-11-02T17:45:56.088Z,2.10
2022-11-02T17:48:24.557Z,2.37
2022-11-02T17:50:54.128Z,2.87
2022-11-02T17:53:22.207Z,2.90
2022-11-02T17:55:49.915Z,2.27
2022-11-02T17:58:17.477Z,1.93
2022-11-02T18:00:46.496Z,2.40
2022-11-02T18:03:16.716Z,2.40
2022-11-02T18:05:48.519Z,2.23
2022-11-02T18:08:18.141Z,2.00
2022-11-02T18:10:47.160Z,2.00
2022-11-02T18:13:15.859Z,2.40
2022-11-02T18:15:43.830Z,1.90
2022-11-02T18:18:12.966Z,2.20
2022-11-02T18:20:42.126Z,2.07
2022-11-02T18:23:15.707Z,1.83
2022-11-02T18:25:43.336Z,2.03
2022-11-02T18:28:10.888Z,2.10
2022-11-02T18:30:42.859Z,2.03
2022-11-02T18:33:13.838Z,2.07
2022-11-02T18:35:42.130Z,2.00
2022-11-02T18:38:09.684Z,2.67
2022-11-02T18:40:37.257Z,2.37
2022-11-02T18:43:05.354Z,2.17
2022-11-02T18:45:33.327Z,2.60
2022-11-02T18:48:00.989Z,1.87
2022-11-02T18:50:29.892Z,2.40
2022-11-02T18:52:57.448Z,2.17
2022-11-02T18:55:25.017Z,2.10
2022-11-02T18:57:52.632Z,2.17
2022-11-02T19:00:20.692Z,2.47
2022-11-02T19:02:48.258Z,2.47
2022-11-02T19:05:29.789Z,2.20
2022-11-02T19:08:18.841Z,3.10
2022-11-02T19:10:48.239Z,3.93
2022-11-02T19:13:15.996Z,2.50
2022-11-02T19:15:43.652Z,2.70
2022-11-02T19:18:11.261Z,3.20
2022-11-02T19:20:38.923Z,2.70
2022-11-02T19:23:08.437Z,3.83
2022-11-02T19:25:36.157Z,3.00
2022-11-02T19:28:04.716Z,2.43
2022-11-02T19:30:32.558Z,3.00
2022-11-02T19:33:00.117Z,2.60
2022-11-02T19:35:27.637Z,2.23
2022-11-02T19:37:57.630Z,3.40
2022-11-02T19:40:26.655Z,2.77
2022-11-02T19:42:54.232Z,2.87
2022-11-02T19:45:21.921Z,2.23
2022-11-02T19:47:50.098Z,2.43
2022-11-02T19:50:17.952Z,2.40
2022-11-02T19:52:46.256Z,3.40
2022-11-02T19:55:13.870Z,2.53
2022-11-02T19:57:42.799Z,2.93
2022-11-02T20:00:12.161Z,2.90
2022-11-02T20:02:39.792Z,3.80
2022-11-02T20:05:08.281Z,3.50
2022-11-02T20:07:35.905Z,3.27
2022-11-02T20:10:03.497Z,2.57
2022-11-02T20:12:33.906Z,2.80
2022-11-02T20:15:02.874Z,2.20
2022-11-02T20:17:38.069Z,2.57
2022-11-02T20:20:14.458Z,2.73
2022-11-02T20:22:43.114Z,2.40
2022-11-02T20:25:10.770Z,2.67
2022-11-02T20:27:41.200Z,2.33
2022-11-02T20:30:11.078Z,2.33
2022-11-02T20:32:38.700Z,2.90
2022-11-02T20:35:11.071Z,3.00
2022-11-02T20:37:41.187Z,2.40
2022-11-02T20:40:09.787Z,2.60
2022-11-02T20:42:37.349Z,2.40
2022-11-02T20:45:05.454Z,2.13
2022-11-02T20:47:34.405Z,2.70
2022-11-02T20:50:01.977Z,2.37
2022-11-02T20:52:29.625Z,2.53
2022-11-02T20:54:57.227Z,3.17
2022-11-02T20:57:24.795Z,2.80
2022-11-02T20:59:52.321Z,2.70
2022-11-02T21:02:22.155Z,2.63
2022-11-02T21:04:51.304Z,2.33
2022-11-02T21:07:19.024Z,2.67
2022-11-02T21:09:46.918Z,2.70
2022-11-02T21:12:32.439Z,2.67
2022-11-02T21:15:00.048Z,2.70
2022-11-02T21:17:27.987Z,2.33
2022-11-02T21:20:02.843Z,2.33
2022-11-02T21:22:35.683Z,2.67
2022-11-02T21:25:03.723Z,2.83
2022-11-02T21:27:31.246Z,2.47
2022-11-02T21:29:58.724Z,2.53
2022-11-02T21:32:26.306Z,2.57
2022-11-02T21:34:54.227Z,2.73
2022-11-02T21:37:23.147Z,2.63
2022-11-02T21:39:50.743Z,8.57
2022-11-02T21:42:18.291Z,7.80
2022-11-02T21:44:45.823Z,3.63
2022-11-02T21:47:13.640Z,3.37
2022-11-02T21:49:41.201Z,4.13
2022-11-02T21:52:08.835Z,3.27
2022-11-02T21:54:37.803Z,3.80
2022-11-02T21:57:05.388Z,3.83
2022-11-02T21:59:32.956Z,6.43
2022-11-02T22:02:00.684Z,9.83
2022-11-02T22:04:31.043Z,10.37
2022-11-02T22:06:59.249Z,9.53
2022-11-02T22:09:27.577Z,8.70
2022-11-02T22:12:10.746Z,4.63
2022-11-02T22:14:38.620Z,3.33
2022-11-02T22:17:16.437Z,2.63
2022-11-02T22:19:54.216Z,2.70
2022-11-02T22:22:21.803Z,3.93
2022-11-02T22:24:49.337Z,3.23
2022-11-02T22:27:18.271Z,3.40
2022-11-02T22:29:45.838Z,3.53
2022-11-02T22:32:14.495Z,3.17
2022-11-02T22:34:43.512Z,3.30
2022-11-02T22:37:43.332Z,2.77
2022-11-02T22:40:11.375Z,2.90
2022-11-02T22:42:42.575Z,3.00
2022-11-02T22:45:11.945Z,2.80
2022-11-02T22:47:39.798Z,2.10
2022-11-02T22:50:08.392Z,3.03
2022-11-02T22:52:36.226Z,3.57
2022-11-02T22:55:04.283Z,2.50
2022-11-02T22:57:32.079Z,2.97
2022-11-02T23:00:01.137Z,2.30
2022-11-02T23:02:29.036Z,2.87
2022-11-02T23:04:56.988Z,2.43
2022-11-02T23:07:24.698Z,2.57
2022-11-02T23:09:52.468Z,2.50
2022-11-02T23:12:19.405Z,3.00
2022-11-02T23:14:47.179Z,2.70
2022-11-02T23:17:16.233Z,3.10
2022-11-02T23:19:44.040Z,3.10
2022-11-02T23:22:30.076Z,2.60
2022-11-02T23:25:17.009Z,2.63
2022-11-02T23:28:03.513Z,3.10
2022-11-02T23:30:50.062Z,2.53
2022-11-02T23:33:19.620Z,2.33
2022-11-02T23:36:05.213Z,2.57
2022-11-02T23:38:47.183Z,2.63
2022-11-02T23:41:14.970Z,2.77
2022-11-02T23:43:42.557Z,2.73
2022-11-02T23:46:10.376Z,2.90
2022-11-02T23:48:39.570Z,2.40
2022-11-02T23:51:25.070Z,2.67
2022-11-02T23:54:10.345Z,2.83
2022-11-02T23:56:44.247Z,2.47
2022-11-02T23:59:12.023Z,2.57
